sensor_id;sensor_type;location;lat;lon;timestamp;P1;durP1;ratioP1;P2;durP2;ratioP2
71655;SDS011;59497;48.798;8.816;2023-12-14T00:01:21;6.30;;;4.27;;
71655;SDS011;59497;48.798;8.816;2023-12-14T00:03:46;3.60;;;1.50;;
71655;SDS011;59497;48.798;8.816;2023-12-14T00:06:12;2.93;;;1.00;;
71655;SDS011;59497;48.798;8.816;2023-12-14T00:08:37;1.73;;;0.85;;
71655;SDS011;59497;48.798;8.816;2023-12-14T00:11:05;2.03;;;0.57;;
71655;SDS011;59497;48.798;8.816;2023-12-14T00:13:30;1.58;;;0.85;;
71655;SDS011;59497;48.798;8.816;2023-12-14T00:15:55;1.10;;;0.60;;
71655;SDS011;59497;48.798;8.816;2023-12-14T00:18:20;2.30;;;0.90;;
71655;SDS011;59497;48.798;8.816;2023-12-14T00:20:46;0.77;;;0.67;;
71655;SDS011;59497;48.798;8.816;2023-12-14T00:23:11;2.13;;;0.83;;
71655;SDS011;59497;48.798;8.816;2023-12-14T00:25:36;1.33;;;0.27;;
71655;SDS011;59497;48.798;8.816;2023-12-14T00:28:01;0.93;;;0.80;;
71655;SDS011;59497;48.798;8.816;2023-12-14T00:30:27;7.03;;;3.50;;
71655;SDS011;59497;48.798;8.816;2023-12-14T00:32:52;3.40;;;1.90;;
71655;SDS011;59497;48.798;8.816;2023-12-14T00:35:17;2.83;;;1.70;;
71655;SDS011;59497;48.798;8.816;2023-12-14T00:37:42;3.13;;;1.77;;
71655;SDS011;59497;48.798;8.816;2023-12-14T00:40:08;3.77;;;1.73;;
71655;SDS011;59497;48.798;8.816;2023-12-14T00:42:33;3.57;;;1.80;;
71655;SDS011;59497;48.798;8.816;2023-12-14T00:44:58;2.60;;;1.53;;
71655;SDS011;59497;48.798;8.816;2023-12-14T00:47:23;2.87;;;1.67;;
71655;SDS011;59497;48.798;8.816;2023-12-14T00:49:49;3.90;;;1.27;;
71655;SDS011;59497;48.798;8.816;2023-12-14T00:52:14;2.07;;;1.30;;
71655;SDS011;59497;48.798;8.816;2023-12-14T00:54:39;4.03;;;1.80;;
71655;SDS011;59497;48.798;8.816;2023-12-14T00:57:04;2.83;;;1.13;;
71655;SDS011;59497;48.798;8.816;2023-12-14T00:59:30;2.60;;;1.20;;
71655;SDS011;59497;48.798;8.816;2023-12-14T01:01:55;2.77;;;0.90;;
71655;SDS011;59497;48.798;8.816;2023-12-14T01:04:20;1.40;;;0.60;;
71655;SDS011;59497;48.798;8.816;2023-12-14T01:06:45;2.53;;;1.03;;
71655;SDS011;59497;48.798;8.816;2023-12-14T01:09:10;2.10;;;1.10;;
71655;SDS011;59497;48.798;8.816;2023-12-14T01:11:36;2.33;;;1.13;;
71655;SDS011;59497;48.798;8.816;2023-12-14T01:14:01;1.30;;;0.63;;
71655;SDS011;59497;48.798;8.816;2023-12-14T01:16:26;1.43;;;0.67;;
71655;SDS011;59497;48.798;8.816;2023-12-14T01:18:52;1.03;;;0.30;;
71655;SDS011;59497;48.798;8.816;2023-12-14T01:21:17;1.63;;;0.27;;
71655;SDS011;59497;48.798;8.816;2023-12-14T01:23:42;0.80;;;0.70;;
71655;SDS011;59497;48.798;8.816;2023-12-14T01:26:08;1.02;;;0.50;;
71655;SDS011;59497;48.798;8.816;2023-12-14T01:28:34;2.03;;;0.50;;
71655;SDS011;59497;48.798;8.816;2023-12-14T01:30:59;1.90;;;0.43;;
71655;SDS011;59497;48.798;8.816;2023-12-14T01:33:24;1.13;;;0.40;;
71655;SDS011;59497;48.798;8.816;2023-12-14T01:35:49;0.80;;;0.50;;
71655;SDS011;59497;48.798;8.816;2023-12-14T01:38:15;1.80;;;0.17;;
71655;SDS011;59497;48.798;8.816;2023-12-14T01:40:40;0.50;;;0.40;;
71655;SDS011;59497;48.798;8.816;2023-12-14T01:43:06;0.93;;;0.50;;
71655;SDS011;59497;48.798;8.816;2023-12-14T01:45:31;1.50;;;0.43;;
71655;SDS011;59497;48.798;8.816;2023-12-14T01:47:56;2.23;;;0.60;;
71655;SDS011;59497;48.798;8.816;2023-12-14T01:50:21;1.23;;;0.40;;
71655;SDS011;59497;48.798;8.816;2023-12-14T01:52:47;0.80;;;0.57;;
71655;SDS011;59497;48.798;8.816;2023-12-14T01:55:12;1.37;;;0.47;;
71655;SDS011;59497;48.798;8.816;2023-12-14T01:57:37;0.50;;;0.20;;
71655;SDS011;59497;48.798;8.816;2023-12-14T02:00:03;2.03;;;0.50;;
71655;SDS011;59497;48.798;8.816;2023-12-14T02:02:28;0.60;;;0.40;;
71655;SDS011;59497;48.798;8.816;2023-12-14T02:04:53;1.27;;;0.57;;
71655;SDS011;59497;48.798;8.816;2023-12-14T02:07:18;1.00;;;0.57;;
71655;SDS011;59497;48.798;8.816;2023-12-14T02:09:44;0.80;;;0.67;;
71655;SDS011;59497;48.798;8.816;2023-12-14T02:12:09;1.40;;;0.47;;
71655;SDS011;59497;48.798;8.816;2023-12-14T02:14:34;0.87;;;0.50;;
71655;SDS011;59497;48.798;8.816;2023-12-14T02:16:59;1.30;;;0.63;;
71655;SDS011;59497;48.798;8.816;2023-12-14T02:19:24;0.93;;;0.60;;
71655;SDS011;59497;48.798;8.816;2023-12-14T02:21:50;0.83;;;0.37;;
71655;SDS011;59497;48.798;8.816;2023-12-14T02:24:15;1.60;;;0.50;;
71655;SDS011;59497;48.798;8.816;2023-12-14T02:26:40;1.60;;;0.50;;
71655;SDS011;59497;48.798;8.816;2023-12-14T02:29:05;1.10;;;0.50;;
71655;SDS011;59497;48.798;8.816;2023-12-14T02:31:31;1.20;;;0.50;;
71655;SDS011;59497;48.798;8.816;2023-12-14T02:33:56;0.93;;;0.50;;
71655;SDS011;59497;48.798;8.816;2023-12-14T02:36:21;2.57;;;1.10;;
71655;SDS011;59497;48.798;8.816;2023-12-14T02:38:46;1.50;;;0.80;;
71655;SDS011;59497;48.798;8.816;2023-12-14T02:41:11;3.03;;;0.60;;
71655;SDS011;59497;48.798;8.816;2023-12-14T02:43:37;1.00;;;0.43;;
71655;SDS011;59497;48.798;8.816;2023-12-14T02:46:03;1.30;;;0.43;;
71655;SDS011;59497;48.798;8.816;2023-12-14T02:48:28;1.57;;;1.00;;
71655;SDS011;59497;48.798;8.816;2023-12-14T02:50:56;2.08;;;1.42;;
71655;SDS011;59497;48.798;8.816;2023-12-14T02:53:21;1.67;;;0.73;;
71655;SDS011;59497;48.798;8.816;2023-12-14T02:55:47;1.50;;;0.77;;
71655;SDS011;59497;48.798;8.816;2023-12-14T02:58:12;1.43;;;0.57;;
71655;SDS011;59497;48.798;8.816;2023-12-14T03:00:37;1.57;;;0.40;;
71655;SDS011;59497;48.798;8.816;2023-12-14T03:03:02;0.80;;;0.43;;
71655;SDS011;59497;48.798;8.816;2023-12-14T03:05:28;1.27;;;0.57;;
71655;SDS011;59497;48.798;8.816;2023-12-14T03:07:53;1.23;;;0.47;;
71655;SDS011;59497;48.798;8.816;2023-12-14T03:10:18;0.30;;;0.10;;
71655;SDS011;59497;48.798;8.816;2023-12-14T03:12:43;1.73;;;0.40;;
71655;SDS011;59497;48.798;8.816;2023-12-14T03:15:09;0.67;;;0.13;;
71655;SDS011;59497;48.798;8.816;2023-12-14T03:17:34;0.40;;;0.20;;
71655;SDS011;59497;48.798;8.816;2023-12-14T03:19:59;0.90;;;0.40;;
71655;SDS011;59497;48.798;8.816;2023-12-14T03:22:24;1.10;;;0.60;;
71655;SDS011;59497;48.798;8.816;2023-12-14T03:24:50;1.43;;;0.60;;
71655;SDS011;59497;48.798;8.816;2023-12-14T03:27:15;0.90;;;0.37;;
71655;SDS011;59497;48.798;8.816;2023-12-14T03:29:40;0.50;;;0.20;;
71655;SDS011;59497;48.798;8.816;2023-12-14T03:32:06;0.50;;;0.40;;
71655;SDS011;59497;48.798;8.816;2023-12-14T03:34:31;1.37;;;0.17;;
71655;SDS011;59497;48.798;8.816;2023-12-14T03:36:56;0.57;;;0.30;;
71655;SDS011;59497;48.798;8.816;2023-12-14T03:39:21;0.50;;;0.20;;
71655;SDS011;59497;48.798;8.816;2023-12-14T03:41:47;0.90;;;0.30;;
71655;SDS011;59497;48.798;8.816;2023-12-14T03:44:12;2.10;;;0.50;;
71655;SDS011;59497;48.798;8.816;2023-12-14T03:46:37;1.50;;;0.93;;
71655;SDS011;59497;48.798;8.816;2023-12-14T03:49:02;2.30;;;1.20;;
71655;SDS011;59497;48.798;8.816;2023-12-14T03:51:28;0.63;;;0.60;;
71655;SDS011;59497;48.798;8.816;2023-12-14T03:53:54;0.57;;;0.38;;
71655;SDS011;59497;48.798;8.816;2023-12-14T03:56:19;2.80;;;0.60;;
71655;SDS011;59497;48.798;8.816;2023-12-14T03:58:44;2.37;;;0.43;;
71655;SDS011;59497;48.798;8.816;2023-12-14T04:01:16;2.30;;;0.77;;
71655;SDS011;59497;48.798;8.816;2023-12-14T04:03:41;4.25;;;1.50;;
71655;SDS011;59497;48.798;8.816;2023-12-14T04:06:06;2.20;;;0.70;;
71655;SDS011;59497;48.798;8.816;2023-12-14T04:08:32;2.10;;;0.63;;
71655;SDS011;59497;48.798;8.816;2023-12-14T04:10:57;1.20;;;0.50;;
71655;SDS011;59497;48.798;8.816;2023-12-14T04:13:22;1.90;;;0.63;;
71655;SDS011;59497;48.798;8.816;2023-12-14T04:15:47;0.90;;;0.50;;
71655;SDS011;59497;48.798;8.816;2023-12-14T04:18:13;1.73;;;0.70;;
71655;SDS011;59497;48.798;8.816;2023-12-14T04:20:38;3.33;;;1.10;;
71655;SDS011;59497;48.798;8.816;2023-12-14T04:23:03;2.87;;;1.43;;
71655;SDS011;59497;48.798;8.816;2023-12-14T04:25:28;2.03;;;0.90;;
71655;SDS011;59497;48.798;8.816;2023-12-14T04:27:53;2.43;;;1.07;;
71655;SDS011;59497;48.798;8.816;2023-12-14T04:30:18;1.53;;;0.90;;
71655;SDS011;59497;48.798;8.816;2023-12-14T04:32:44;1.53;;;0.80;;
71655;SDS011;59497;48.798;8.816;2023-12-14T04:35:11;1.60;;;0.80;;
71655;SDS011;59497;48.798;8.816;2023-12-14T04:37:36;1.37;;;0.90;;
71655;SDS011;59497;48.798;8.816;2023-12-14T04:40:02;1.93;;;0.90;;
71655;SDS011;59497;48.798;8.816;2023-12-14T04:42:28;2.95;;;0.93;;
71655;SDS011;59497;48.798;8.816;2023-12-14T04:44:53;1.43;;;0.80;;
71655;SDS011;59497;48.798;8.816;2023-12-14T04:47:18;1.67;;;0.97;;
71655;SDS011;59497;48.798;8.816;2023-12-14T04:49:43;1.77;;;0.87;;
71655;SDS011;59497;48.798;8.816;2023-12-14T04:52:09;1.53;;;0.70;;
71655;SDS011;59497;48.798;8.816;2023-12-14T04:54:34;2.92;;;1.65;;
71655;SDS011;59497;48.798;8.816;2023-12-14T04:57:03;2.17;;;1.67;;
71655;SDS011;59497;48.798;8.816;2023-12-14T04:59:28;2.58;;;1.80;;
71655;SDS011;59497;48.798;8.816;2023-12-14T05:01:53;4.50;;;2.20;;
71655;SDS011;59497;48.798;8.816;2023-12-14T05:04:18;3.90;;;2.13;;
71655;SDS011;59497;48.798;8.816;2023-12-14T05:06:44;3.83;;;2.10;;
71655;SDS011;59497;48.798;8.816;2023-12-14T05:09:09;4.27;;;2.30;;
71655;SDS011;59497;48.798;8.816;2023-12-14T05:11:36;3.47;;;2.20;;
71655;SDS011;59497;48.798;8.816;2023-12-14T05:14:01;2.27;;;1.40;;
71655;SDS011;59497;48.798;8.816;2023-12-14T05:16:27;3.20;;;2.20;;
71655;SDS011;59497;48.798;8.816;2023-12-14T05:18:52;3.53;;;1.90;;
71655;SDS011;59497;48.798;8.816;2023-12-14T05:21:18;5.07;;;3.17;;
71655;SDS011;59497;48.798;8.816;2023-12-14T05:23:43;7.83;;;4.13;;
71655;SDS011;59497;48.798;8.816;2023-12-14T05:26:08;6.90;;;4.53;;
71655;SDS011;59497;48.798;8.816;2023-12-14T05:28:33;5.60;;;4.03;;
71655;SDS011;59497;48.798;8.816;2023-12-14T05:31:00;6.17;;;4.03;;
71655;SDS011;59497;48.798;8.816;2023-12-14T05:33:25;6.33;;;4.20;;
71655;SDS011;59497;48.798;8.816;2023-12-14T05:35:50;4.93;;;3.27;;
71655;SDS011;59497;48.798;8.816;2023-12-14T05:38:15;3.83;;;2.70;;
71655;SDS011;59497;48.798;8.816;2023-12-14T05:40:41;2.77;;;2.10;;
71655;SDS011;59497;48.798;8.816;2023-12-14T05:43:07;2.30;;;1.27;;
71655;SDS011;59497;48.798;8.816;2023-12-14T05:45:32;3.73;;;1.90;;
71655;SDS011;59497;48.798;8.816;2023-12-14T05:47:57;3.47;;;1.87;;
71655;SDS011;59497;48.798;8.816;2023-12-14T05:50:22;2.90;;;1.93;;
71655;SDS011;59497;48.798;8.816;2023-12-14T05:52:48;2.60;;;1.67;;
71655;SDS011;59497;48.798;8.816;2023-12-14T05:55:13;3.03;;;1.53;;
71655;SDS011;59497;48.798;8.816;2023-12-14T05:57:38;2.33;;;1.93;;
71655;SDS011;59497;48.798;8.816;2023-12-14T06:00:04;2.07;;;1.60;;
71655;SDS011;59497;48.798;8.816;2023-12-14T06:02:30;3.00;;;1.27;;
71655;SDS011;59497;48.798;8.816;2023-12-14T06:04:56;2.47;;;1.38;;
71655;SDS011;59497;48.798;8.816;2023-12-14T06:07:22;1.50;;;1.20;;
71655;SDS011;59497;48.798;8.816;2023-12-14T06:09:48;1.20;;;0.73;;
71655;SDS011;59497;48.798;8.816;2023-12-14T06:12:13;1.67;;;0.87;;
71655;SDS011;59497;48.798;8.816;2023-12-14T06:14:39;1.35;;;0.77;;
71655;SDS011;59497;48.798;8.816;2023-12-14T06:17:04;1.70;;;1.03;;
71655;SDS011;59497;48.798;8.816;2023-12-14T06:19:29;0.87;;;0.50;;
71655;SDS011;59497;48.798;8.816;2023-12-14T06:21:54;3.20;;;1.67;;
71655;SDS011;59497;48.798;8.816;2023-12-14T06:24:19;1.93;;;1.17;;
71655;SDS011;59497;48.798;8.816;2023-12-14T06:26:47;1.75;;;1.00;;
71655;SDS011;59497;48.798;8.816;2023-12-14T06:29:12;0.73;;;0.60;;
71655;SDS011;59497;48.798;8.816;2023-12-14T06:31:38;1.70;;;0.80;;
71655;SDS011;59497;48.798;8.816;2023-12-14T06:34:03;0.97;;;0.50;;
71655;SDS011;59497;48.798;8.816;2023-12-14T06:36:32;2.28;;;1.10;;
71655;SDS011;59497;48.798;8.816;2023-12-14T06:38:58;3.77;;;2.20;;
71655;SDS011;59497;48.798;8.816;2023-12-14T06:41:24;2.92;;;0.93;;
71655;SDS011;59497;48.798;8.816;2023-12-14T06:43:49;1.50;;;1.25;;
71655;SDS011;59497;48.798;8.816;2023-12-14T06:46:14;1.37;;;0.87;;
71655;SDS011;59497;48.798;8.816;2023-12-14T06:48:40;1.50;;;0.63;;
71655;SDS011;59497;48.798;8.816;2023-12-14T06:51:05;4.27;;;1.20;;
71655;SDS011;59497;48.798;8.816;2023-12-14T06:53:31;1.52;;;0.60;;
71655;SDS011;59497;48.798;8.816;2023-12-14T06:55:56;1.60;;;1.07;;
71655;SDS011;59497;48.798;8.816;2023-12-14T06:58:21;4.10;;;1.93;;
71655;SDS011;59497;48.798;8.816;2023-12-14T07:00:46;8.10;;;4.43;;
71655;SDS011;59497;48.798;8.816;2023-12-14T07:03:12;5.70;;;3.30;;
71655;SDS011;59497;48.798;8.816;2023-12-14T07:05:38;4.23;;;2.37;;
71655;SDS011;59497;48.798;8.816;2023-12-14T07:08:03;3.95;;;2.00;;
71655;SDS011;59497;48.798;8.816;2023-12-14T07:10:28;2.60;;;1.53;;
71655;SDS011;59497;48.798;8.816;2023-12-14T07:12:54;2.40;;;1.77;;
71655;SDS011;59497;48.798;8.816;2023-12-14T07:15:19;3.53;;;1.67;;
71655;SDS011;59497;48.798;8.816;2023-12-14T07:17:45;2.20;;;1.70;;
71655;SDS011;59497;48.798;8.816;2023-12-14T07:20:10;2.80;;;2.10;;
71655;SDS011;59497;48.798;8.816;2023-12-14T07:22:36;3.10;;;2.30;;
71655;SDS011;59497;48.798;8.816;2023-12-14T07:25:01;3.13;;;2.53;;
71655;SDS011;59497;48.798;8.816;2023-12-14T07:27:27;4.17;;;2.80;;
71655;SDS011;59497;48.798;8.816;2023-12-14T07:29:52;3.83;;;2.60;;
71655;SDS011;59497;48.798;8.816;2023-12-14T07:32:17;3.70;;;2.83;;
71655;SDS011;59497;48.798;8.816;2023-12-14T07:34:42;3.73;;;2.83;;
71655;SDS011;59497;48.798;8.816;2023-12-14T07:37:09;3.03;;;2.00;;
71655;SDS011;59497;48.798;8.816;2023-12-14T07:39:34;4.60;;;2.80;;
71655;SDS011;59497;48.798;8.816;2023-12-14T07:41:59;5.50;;;3.80;;
71655;SDS011;59497;48.798;8.816;2023-12-14T07:44:25;5.37;;;3.10;;
71655;SDS011;59497;48.798;8.816;2023-12-14T07:46:51;5.73;;;3.47;;
71655;SDS011;59497;48.798;8.816;2023-12-14T07:49:16;5.57;;;3.67;;
71655;SDS011;59497;48.798;8.816;2023-12-14T07:51:45;5.03;;;3.45;;
71655;SDS011;59497;48.798;8.816;2023-12-14T07:54:10;4.37;;;3.30;;
71655;SDS011;59497;48.798;8.816;2023-12-14T07:56:35;5.40;;;3.23;;
71655;SDS011;59497;48.798;8.816;2023-12-14T07:59:00;5.00;;;3.80;;
71655;SDS011;59497;48.798;8.816;2023-12-14T08:01:26;7.73;;;6.40;;
71655;SDS011;59497;48.798;8.816;2023-12-14T08:03:51;12.07;;;7.07;;
71655;SDS011;59497;48.798;8.816;2023-12-14T08:06:16;9.20;;;5.87;;
71655;SDS011;59497;48.798;8.816;2023-12-14T08:08:41;5.80;;;3.33;;
71655;SDS011;59497;48.798;8.816;2023-12-14T08:11:07;5.50;;;4.50;;
71655;SDS011;59497;48.798;8.816;2023-12-14T08:13:32;5.73;;;4.53;;
71655;SDS011;59497;48.798;8.816;2023-12-14T08:15:58;3.33;;;2.90;;
71655;SDS011;59497;48.798;8.816;2023-12-14T08:18:23;6.07;;;3.40;;
71655;SDS011;59497;48.798;8.816;2023-12-14T08:20:48;7.33;;;3.43;;
71655;SDS011;59497;48.798;8.816;2023-12-14T08:23:13;6.33;;;3.53;;
71655;SDS011;59497;48.798;8.816;2023-12-14T08:25:38;6.40;;;3.63;;
71655;SDS011;59497;48.798;8.816;2023-12-14T08:28:04;7.47;;;4.20;;
71655;SDS011;59497;48.798;8.816;2023-12-14T08:30:29;9.50;;;4.80;;
71655;SDS011;59497;48.798;8.816;2023-12-14T08:32:55;9.53;;;4.63;;
71655;SDS011;59497;48.798;8.816;2023-12-14T08:35:21;8.63;;;4.93;;
71655;SDS011;59497;48.798;8.816;2023-12-14T08:37:46;6.97;;;3.80;;
71655;SDS011;59497;48.798;8.816;2023-12-14T08:40:12;6.43;;;3.20;;
71655;SDS011;59497;48.798;8.816;2023-12-14T08:42:37;8.00;;;3.13;;
71655;SDS011;59497;48.798;8.816;2023-12-14T08:45:02;6.87;;;3.83;;
71655;SDS011;59497;48.798;8.816;2023-12-14T08:47:28;6.35;;;4.03;;
71655;SDS011;59497;48.798;8.816;2023-12-14T08:49:53;6.10;;;3.30;;
71655;SDS011;59497;48.798;8.816;2023-12-14T08:52:18;7.07;;;3.83;;
71655;SDS011;59497;48.798;8.816;2023-12-14T08:54:43;9.40;;;6.10;;
71655;SDS011;59497;48.798;8.816;2023-12-14T08:57:09;9.33;;;6.50;;
71655;SDS011;59497;48.798;8.816;2023-12-14T08:59:34;6.10;;;3.30;;
71655;SDS011;59497;48.798;8.816;2023-12-14T09:02:00;6.47;;;3.43;;
71655;SDS011;59497;48.798;8.816;2023-12-14T09:04:25;8.43;;;4.70;;
71655;SDS011;59497;48.798;8.816;2023-12-14T09:06:50;6.83;;;4.90;;
71655;SDS011;59497;48.798;8.816;2023-12-14T09:09:16;6.60;;;3.38;;
71655;SDS011;59497;48.798;8.816;2023-12-14T09:11:43;5.55;;;3.22;;
71655;SDS011;59497;48.798;8.816;2023-12-14T09:14:09;4.60;;;2.77;;
71655;SDS011;59497;48.798;8.816;2023-12-14T09:16:34;6.65;;;2.75;;
71655;SDS011;59497;48.798;8.816;2023-12-14T09:18:59;6.40;;;3.03;;
71655;SDS011;59497;48.798;8.816;2023-12-14T09:21:25;6.40;;;3.37;;
71655;SDS011;59497;48.798;8.816;2023-12-14T09:23:50;6.67;;;3.50;;
71655;SDS011;59497;48.798;8.816;2023-12-14T09:26:18;5.57;;;3.53;;
71655;SDS011;59497;48.798;8.816;2023-12-14T09:28:43;5.20;;;3.43;;
71655;SDS011;59497;48.798;8.816;2023-12-14T09:31:08;6.73;;;4.00;;
71655;SDS011;59497;48.798;8.816;2023-12-14T09:33:33;5.67;;;3.93;;
71655;SDS011;59497;48.798;8.816;2023-12-14T09:35:59;5.83;;;3.57;;
71655;SDS011;59497;48.798;8.816;2023-12-14T09:38:24;6.23;;;3.90;;
71655;SDS011;59497;48.798;8.816;2023-12-14T09:40:49;4.70;;;3.60;;
71655;SDS011;59497;48.798;8.816;2023-12-14T09:43:14;6.13;;;3.50;;
71655;SDS011;59497;48.798;8.816;2023-12-14T09:45:40;5.40;;;4.20;;
71655;SDS011;59497;48.798;8.816;2023-12-14T09:48:07;5.88;;;4.25;;
71655;SDS011;59497;48.798;8.816;2023-12-14T09:50:34;4.90;;;2.90;;
71655;SDS011;59497;48.798;8.816;2023-12-14T09:53:00;4.63;;;2.87;;
71655;SDS011;59497;48.798;8.816;2023-12-14T09:55:26;6.18;;;4.22;;
71655;SDS011;59497;48.798;8.816;2023-12-14T09:57:51;4.37;;;3.13;;
71655;SDS011;59497;48.798;8.816;2023-12-14T10:00:32;4.30;;;3.33;;
71655;SDS011;59497;48.798;8.816;2023-12-14T10:03:08;3.60;;;2.40;;
71655;SDS011;59497;48.798;8.816;2023-12-14T10:05:42;3.37;;;2.50;;
71655;SDS011;59497;48.798;8.816;2023-12-14T10:08:07;3.45;;;2.40;;
71655;SDS011;59497;48.798;8.816;2023-12-14T10:10:32;6.93;;;4.30;;
71655;SDS011;59497;48.798;8.816;2023-12-14T10:12:57;4.47;;;3.40;;
71655;SDS011;59497;48.798;8.816;2023-12-14T10:15:23;4.30;;;2.87;;
71655;SDS011;59497;48.798;8.816;2023-12-14T10:17:52;3.60;;;2.53;;
71655;SDS011;59497;48.798;8.816;2023-12-14T10:20:22;5.67;;;2.43;;
71655;SDS011;59497;48.798;8.816;2023-12-14T10:22:48;4.47;;;2.63;;
71655;SDS011;59497;48.798;8.816;2023-12-14T10:25:14;3.78;;;2.72;;
71655;SDS011;59497;48.798;8.816;2023-12-14T10:27:39;10.93;;;7.80;;
71655;SDS011;59497;48.798;8.816;2023-12-14T10:30:07;7.97;;;5.57;;
71655;SDS011;59497;48.798;8.816;2023-12-14T10:32:33;7.63;;;4.93;;
71655;SDS011;59497;48.798;8.816;2023-12-14T10:34:59;7.78;;;4.80;;
71655;SDS011;59497;48.798;8.816;2023-12-14T10:37:24;4.10;;;2.77;;
71655;SDS011;59497;48.798;8.816;2023-12-14T10:39:50;5.97;;;3.53;;
71655;SDS011;59497;48.798;8.816;2023-12-14T10:42:18;4.82;;;3.28;;
71655;SDS011;59497;48.798;8.816;2023-12-14T10:44:43;4.10;;;2.63;;
71655;SDS011;59497;48.798;8.816;2023-12-14T10:47:09;4.05;;;2.58;;
71655;SDS011;59497;48.798;8.816;2023-12-14T10:49:34;5.33;;;3.53;;
71655;SDS011;59497;48.798;8.816;2023-12-14T10:52:01;3.92;;;2.53;;
71655;SDS011;59497;48.798;8.816;2023-12-14T10:54:28;4.43;;;3.00;;
71655;SDS011;59497;48.798;8.816;2023-12-14T10:56:56;5.20;;;3.03;;
71655;SDS011;59497;48.798;8.816;2023-12-14T10:59:23;3.85;;;2.83;;
71655;SDS011;59497;48.798;8.816;2023-12-14T11:01:52;7.03;;;3.25;;
71655;SDS011;59497;48.798;8.816;2023-12-14T11:04:18;4.50;;;3.03;;
71655;SDS011;59497;48.798;8.816;2023-12-14T11:06:45;13.23;;;7.13;;
71655;SDS011;59497;48.798;8.816;2023-12-14T11:09:13;26.83;;;12.70;;
71655;SDS011;59497;48.798;8.816;2023-12-14T11:14:14;23.50;;;13.48;;
71655;SDS011;59497;48.798;8.816;2023-12-14T11:16:43;7.70;;;5.10;;
71655;SDS011;59497;48.798;8.816;2023-12-14T11:24:35;9.18;;;5.97;;
71655;SDS011;59497;48.798;8.816;2023-12-14T11:27:04;19.02;;;10.70;;
71655;SDS011;59497;48.798;8.816;2023-12-14T11:29:29;7.28;;;4.63;;
71655;SDS011;59497;48.798;8.816;2023-12-14T11:31:54;8.20;;;4.23;;
71655;SDS011;59497;48.798;8.816;2023-12-14T11:34:20;5.80;;;4.10;;
71655;SDS011;59497;48.798;8.816;2023-12-14T11:36:48;7.18;;;4.57;;
71655;SDS011;59497;48.798;8.816;2023-12-14T11:39:14;6.43;;;4.37;;
71655;SDS011;59497;48.798;8.816;2023-12-14T11:41:39;5.70;;;3.72;;
71655;SDS011;59497;48.798;8.816;2023-12-14T11:44:04;5.93;;;3.10;;
71655;SDS011;59497;48.798;8.816;2023-12-14T11:46:30;4.17;;;2.27;;
71655;SDS011;59497;48.798;8.816;2023-12-14T11:48:58;4.03;;;2.67;;
71655;SDS011;59497;48.798;8.816;2023-12-14T11:51:24;4.15;;;2.38;;
71655;SDS011;59497;48.798;8.816;2023-12-14T11:53:54;5.15;;;3.03;;
71655;SDS011;59497;48.798;8.816;2023-12-14T11:56:19;3.80;;;2.40;;
71655;SDS011;59497;48.798;8.816;2023-12-14T11:58:45;4.10;;;2.17;;
71655;SDS011;59497;48.798;8.816;2023-12-14T12:01:11;4.63;;;1.88;;
71655;SDS011;59497;48.798;8.816;2023-12-14T12:03:37;4.60;;;2.17;;
71655;SDS011;59497;48.798;8.816;2023-12-14T12:06:02;2.77;;;2.03;;
71655;SDS011;59497;48.798;8.816;2023-12-14T12:08:27;3.93;;;2.63;;
71655;SDS011;59497;48.798;8.816;2023-12-14T12:10:53;2.90;;;2.13;;
71655;SDS011;59497;48.798;8.816;2023-12-14T12:13:19;3.33;;;2.30;;
71655;SDS011;59497;48.798;8.816;2023-12-14T12:15:45;4.13;;;2.42;;
71655;SDS011;59497;48.798;8.816;2023-12-14T12:18:14;2.42;;;1.33;;
71655;SDS011;59497;48.798;8.816;2023-12-14T12:20:40;4.45;;;2.60;;
71655;SDS011;59497;48.798;8.816;2023-12-14T12:23:05;3.07;;;2.17;;
71655;SDS011;59497;48.798;8.816;2023-12-14T12:25:31;3.47;;;2.03;;
71655;SDS011;59497;48.798;8.816;2023-12-14T12:27:57;5.07;;;3.23;;
71655;SDS011;59497;48.798;8.816;2023-12-14T12:30:22;6.25;;;3.13;;
71655;SDS011;59497;48.798;8.816;2023-12-14T12:32:48;4.90;;;2.93;;
71655;SDS011;59497;48.798;8.816;2023-12-14T12:35:13;2.88;;;1.55;;
71655;SDS011;59497;48.798;8.816;2023-12-14T12:37:39;4.50;;;2.67;;
71655;SDS011;59497;48.798;8.816;2023-12-14T12:40:04;3.10;;;1.63;;
71655;SDS011;59497;48.798;8.816;2023-12-14T12:42:30;4.50;;;2.00;;
71655;SDS011;59497;48.798;8.816;2023-12-14T12:44:55;3.80;;;1.90;;
71655;SDS011;59497;48.798;8.816;2023-12-14T12:47:20;4.90;;;3.23;;
71655;SDS011;59497;48.798;8.816;2023-12-14T12:49:46;7.70;;;4.03;;
71655;SDS011;59497;48.798;8.816;2023-12-14T12:52:11;5.80;;;2.70;;
71655;SDS011;59497;48.798;8.816;2023-12-14T12:54:36;6.40;;;3.20;;
71655;SDS011;59497;48.798;8.816;2023-12-14T12:57:01;6.43;;;2.90;;
71655;SDS011;59497;48.798;8.816;2023-12-14T12:59:27;6.87;;;3.80;;
71655;SDS011;59497;48.798;8.816;2023-12-14T13:01:52;4.37;;;2.13;;
71655;SDS011;59497;48.798;8.816;2023-12-14T13:04:21;6.45;;;2.92;;
71655;SDS011;59497;48.798;8.816;2023-12-14T13:06:47;3.33;;;1.37;;
71655;SDS011;59497;48.798;8.816;2023-12-14T13:09:13;3.55;;;2.28;;
71655;SDS011;59497;48.798;8.816;2023-12-14T13:11:39;4.07;;;1.95;;
71655;SDS011;59497;48.798;8.816;2023-12-14T13:14:04;3.40;;;2.10;;
71655;SDS011;59497;48.798;8.816;2023-12-14T13:16:32;4.45;;;2.20;;
71655;SDS011;59497;48.798;8.816;2023-12-14T13:18:58;5.33;;;2.60;;
71655;SDS011;59497;48.798;8.816;2023-12-14T13:21:23;5.23;;;2.30;;
71655;SDS011;59497;48.798;8.816;2023-12-14T13:23:48;4.20;;;2.30;;
71655;SDS011;59497;48.798;8.816;2023-12-14T13:26:15;3.63;;;1.77;;
71655;SDS011;59497;48.798;8.816;2023-12-14T13:28:41;4.87;;;2.60;;
71655;SDS011;59497;48.798;8.816;2023-12-14T13:31:06;7.33;;;3.50;;
71655;SDS011;59497;48.798;8.816;2023-12-14T13:33:31;6.80;;;2.83;;
71655;SDS011;59497;48.798;8.816;2023-12-14T13:35:56;6.40;;;3.40;;
71655;SDS011;59497;48.798;8.816;2023-12-14T13:38:22;24.10;;;9.20;;
71655;SDS011;59497;48.798;8.816;2023-12-14T13:40:47;49.93;;;17.63;;
71655;SDS011;59497;48.798;8.816;2023-12-14T13:43:12;39.27;;;13.30;;
71655;SDS011;59497;48.798;8.816;2023-12-14T13:45:38;25.30;;;10.47;;
71655;SDS011;59497;48.798;8.816;2023-12-14T13:48:03;14.50;;;6.60;;
71655;SDS011;59497;48.798;8.816;2023-12-14T13:50:29;15.90;;;7.47;;
71655;SDS011;59497;48.798;8.816;2023-12-14T13:52:54;12.03;;;5.87;;
71655;SDS011;59497;48.798;8.816;2023-12-14T13:55:20;10.93;;;5.83;;
71655;SDS011;59497;48.798;8.816;2023-12-14T13:57:46;8.88;;;5.72;;
71655;SDS011;59497;48.798;8.816;2023-12-14T14:00:12;8.07;;;4.65;;
71655;SDS011;59497;48.798;8.816;2023-12-14T14:02:38;7.67;;;3.87;;
71655;SDS011;59497;48.798;8.816;2023-12-14T14:05:03;5.30;;;3.13;;
71655;SDS011;59497;48.798;8.816;2023-12-14T14:07:28;12.27;;;5.87;;
71655;SDS011;59497;48.798;8.816;2023-12-14T14:09:54;7.67;;;5.03;;
71655;SDS011;59497;48.798;8.816;2023-12-14T14:12:19;8.33;;;5.20;;
71655;SDS011;59497;48.798;8.816;2023-12-14T14:14:44;7.03;;;3.90;;
71655;SDS011;59497;48.798;8.816;2023-12-14T14:17:09;6.13;;;3.43;;
71655;SDS011;59497;48.798;8.816;2023-12-14T14:19:35;5.40;;;2.70;;
71655;SDS011;59497;48.798;8.816;2023-12-14T14:22:00;10.90;;;3.53;;
71655;SDS011;59497;48.798;8.816;2023-12-14T14:24:25;12.13;;;4.40;;
71655;SDS011;59497;48.798;8.816;2023-12-14T14:26:51;6.77;;;3.03;;
71655;SDS011;59497;48.798;8.816;2023-12-14T14:29:17;7.22;;;3.00;;
71655;SDS011;59497;48.798;8.816;2023-12-14T14:31:43;9.27;;;3.40;;
71655;SDS011;59497;48.798;8.816;2023-12-14T14:34:08;8.17;;;3.77;;
71655;SDS011;59497;48.798;8.816;2023-12-14T14:36:34;12.73;;;3.77;;
71655;SDS011;59497;48.798;8.816;2023-12-14T14:38:59;11.27;;;4.60;;
71655;SDS011;59497;48.798;8.816;2023-12-14T14:41:24;6.67;;;3.27;;
71655;SDS011;59497;48.798;8.816;2023-12-14T14:43:50;13.93;;;3.90;;